Time;durP1;ratioP1;P1;durP2;ratioP2;P2;SDS_P1;SDS_P2;PMS_P1;PMS_P2;Temp;Humidity;BMP_temperature;BMP_pressure;BME280_temperature;BME280_humidity;BME280_pressure;Samples;Min_cycle;Max_cycle;Signal;HPM_P1;HPM_P2
2023/05/14 00:00:59;;;;;;;7.93;6.28;;;14.30;99.90;;;;;;4965816;28;20077;-75
2023/05/14 00:03:25;;;;;;;15.45;6.57;;;14.20;99.90;;;;;;4950024;28;20035;-76
2023/05/14 00:05:51;;;;;;;9.18;6.65;;;14.20;99.90;;;;;;4947687;28;20383;-76
2023/05/14 00:08:16;;;;;;;9.25;6.80;;;14.10;99.90;;;;;;4957842;28;20036;-75
2023/05/14 00:10:42;;;;;;;11.02;7.50;;;14.00;99.90;;;;;;4962556;28;20035;-76
2023/05/14 00:13:07;;;;;;;9.38;6.55;;;14.10;99.90;;;;;;4958553;28;20027;-76
2023/05/14 00:15:33;;;;;;;10.02;6.97;;;14.00;99.90;;;;;;4958788;28;20102;-76
2023/05/14 00:17:58;;;;;;;10.98;7.97;;;14.00;99.90;;;;;;4958139;28;20031;-74
2023/05/14 00:20:24;;;;;;;12.63;7.60;;;13.90;99.90;;;;;;4960295;28;20629;-76
2023/05/14 00:22:49;;;;;;;11.77;7.55;;;13.90;99.90;;;;;;4970422;28;20027;-76
2023/05/14 00:25:15;;;;;;;12.75;6.82;;;13.80;99.90;;;;;;4963491;28;20368;-76
2023/05/14 00:27:40;;;;;;;11.18;7.22;;;13.80;99.90;;;;;;4980446;28;20045;-76
2023/05/14 00:30:06;;;;;;;11.45;7.13;;;13.80;99.90;;;;;;4971489;28;20023;-75
2023/05/14 00:32:32;;;;;;;8.25;7.07;;;13.70;99.90;;;;;;4968982;28;20480;-77
2023/05/14 00:34:58;;;;;;;10.65;7.50;;;13.70;99.90;;;;;;4953141;28;20391;-75
2023/05/14 00:37:23;;;;;;;10.60;7.85;;;13.60;99.90;;;;;;4973989;28;20553;-76
2023/05/14 00:39:49;;;;;;;9.38;7.90;;;13.60;99.90;;;;;;4970238;28;20034;-76
2023/05/14 00:42:14;;;;;;;12.75;8.00;;;13.60;99.90;;;;;;4963264;28;20082;-77
2023/05/14 00:44:40;;;;;;;12.18;6.60;;;13.50;99.90;;;;;;4979116;28;20019;-75
2023/05/14 00:47:06;;;;;;;9.55;7.25;;;13.40;99.90;;;;;;4975610;28;20122;-76
2023/05/14 00:49:32;;;;;;;10.90;7.55;;;13.50;99.90;;;;;;4971932;28;20034;-75
2023/05/14 00:51:59;;;;;;;11.68;7.68;;;13.40;99.90;;;;;;4976009;28;20031;-76
2023/05/14 00:54:25;;;;;;;10.68;7.63;;;13.40;99.90;;;;;;4971936;28;20394;-76
2023/05/14 00:56:51;;;;;;;10.35;8.80;;;13.30;99.90;;;;;;4975653;28;20062;-76
2023/05/14 00:59:17;;;;;;;13.02;8.43;;;13.20;99.90;;;;;;4975113;28;20054;-76
2023/05/14 01:01:42;;;;;;;10.32;8.48;;;13.20;99.90;;;;;;4975825;28;20533;-75
2023/05/14 01:04:10;;;;;;;11.65;8.27;;;13.10;99.90;;;;;;4981165;28;20105;-75
2023/05/14 01:07:13;;;;;;;11.70;7.50;;;13.10;99.90;;;;;;4958610;28;20117;-76
2023/05/14 01:09:58;;;;;;;12.25;8.80;;;13.00;99.90;;;;;;4968138;28;20027;-76
2023/05/14 01:12:38;;;;;;;11.35;8.48;;;12.90;99.90;;;;;;4975325;28;20594;-75
2023/05/14 01:15:11;;;;;;;12.70;8.80;;;12.90;99.90;;;;;;4978918;28;20431;-76
2023/05/14 01:17:45;;;;;;;10.65;8.15;;;12.90;99.90;;;;;;4978142;28;20403;-75
2023/05/14 01:20:11;;;;;;;13.88;8.77;;;12.80;99.90;;;;;;4974692;28;20057;-77
2023/05/14 01:22:36;;;;;;;12.68;9.05;;;12.80;99.90;;;;;;4973690;28;20031;-77
2023/05/14 01:25:03;;;;;;;12.80;8.20;;;12.80;99.90;;;;;;4957399;28;20081;-78
2023/05/14 01:28:05;;;;;;;12.77;9.75;;;12.80;99.90;;;;;;4980558;28;20498;-77
2023/05/14 01:30:36;;;;;;;11.13;9.33;;;12.80;99.90;;;;;;4969532;28;20030;-77
2023/05/14 01:33:07;;;;;;;11.73;8.75;;;12.70;99.90;;;;;;4977333;28;20282;-77
2023/05/14 01:35:33;;;;;;;13.30;9.43;;;12.70;99.90;;;;;;4974637;28;20166;-77
2023/05/14 01:38:02;;;;;;;15.65;9.63;;;12.70;99.90;;;;;;4974358;28;20544;-77
2023/05/14 01:40:28;;;;;;;13.95;9.68;;;12.70;99.90;;;;;;4973472;28;20023;-77
2023/05/14 01:42:55;;;;;;;14.77;9.10;;;12.60;99.90;;;;;;4973966;28;20041;-77
2023/05/14 01:45:22;;;;;;;16.60;11.48;;;12.60;99.90;;;;;;4981143;28;20039;-76
2023/05/14 01:47:47;;;;;;;15.05;10.43;;;12.60;99.90;;;;;;4981676;28;20039;-78
2023/05/14 01:50:13;;;;;;;14.38;9.77;;;12.60;99.90;;;;;;4974358;28;20498;-77
2023/05/14 01:52:38;;;;;;;13.38;10.95;;;12.50;99.90;;;;;;4965955;28;20066;-77
2023/05/14 01:55:05;;;;;;;16.60;11.95;;;12.50;99.90;;;;;;4974333;28;20022;-75
2023/05/14 01:57:30;;;;;;;15.13;10.57;;;12.50;99.90;;;;;;4963798;28;20035;-75
2023/05/14 01:59:56;;;;;;;16.25;11.18;;;12.50;99.90;;;;;;4972558;28;20369;-75
2023/05/14 02:02:22;;;;;;;19.73;10.98;;;12.40;99.90;;;;;;4971558;28;20117;-75
2023/05/14 02:04:47;;;;;;;15.70;10.95;;;12.40;99.90;;;;;;4971529;28;20439;-75
2023/05/14 02:07:13;;;;;;;16.15;10.95;;;12.30;99.90;;;;;;4971991;28;20047;-75
2023/05/14 02:09:39;;;;;;;14.75;10.90;;;12.30;99.90;;;;;;4971743;28;20507;-76
2023/05/14 02:12:07;;;;;;;13.52;10.98;;;12.20;99.90;;;;;;4971344;28;20057;-77
2023/05/14 02:14:33;;;;;;;14.63;11.32;;;12.20;99.90;;;;;;4971263;28;20069;-76
2023/05/14 02:16:58;;;;;;;16.73;11.52;;;12.20;99.90;;;;;;4974222;28;20050;-74
2023/05/14 02:19:24;;;;;;;14.45;11.93;;;12.10;99.90;;;;;;4986873;28;20077;-75
2023/05/14 02:21:49;;;;;;;17.40;11.75;;;12.10;99.90;;;;;;4974076;28;20082;-75
2023/05/14 02:24:15;;;;;;;18.75;11.95;;;12.00;99.90;;;;;;4972771;28;20062;-76
2023/05/14 02:26:41;;;;;;;24.08;12.88;;;12.00;99.90;;;;;;4963772;28;20042;-75
2023/05/14 02:29:07;;;;;;;14.68;11.75;;;12.00;99.90;;;;;;4972556;28;20394;-76
2023/05/14 02:31:32;;;;;;;17.27;12.65;;;11.90;99.90;;;;;;4973151;28;20398;-75
2023/05/14 02:34:00;;;;;;;13.38;11.73;;;11.80;99.90;;;;;;4970442;28;20030;-75
2023/05/14 02:36:26;;;;;;;17.40;12.00;;;11.80;99.90;;;;;;4971410;28;20065;-75
2023/05/14 02:38:51;;;;;;;16.52;12.65;;;11.80;99.90;;;;;;4972566;28;20109;-75
2023/05/14 02:41:17;;;;;;;18.38;12.15;;;11.70;99.90;;;;;;4967066;28;20403;-75
2023/05/14 02:43:42;;;;;;;14.35;12.30;;;11.70;99.90;;;;;;4962996;28;20035;-75
2023/05/14 02:46:08;;;;;;;17.60;13.60;;;11.70;99.90;;;;;;4984842;28;20042;-75
2023/05/14 02:48:33;;;;;;;17.30;13.88;;;11.60;99.90;;;;;;4978759;28;20026;-75
2023/05/14 02:50:59;;;;;;;17.48;14.00;;;11.60;99.90;;;;;;4972611;28;20109;-75
2023/05/14 02:53:24;;;;;;;20.08;13.45;;;11.50;99.90;;;;;;4962257;28;20547;-75
2023/05/14 02:55:50;;;;;;;18.92;13.63;;;11.50;99.90;;;;;;4968454;28;20146;-76
2023/05/14 02:58:16;;;;;;;23.60;14.00;;;11.50;99.90;;;;;;4972235;28;20014;-75
2023/05/14 03:00:41;;;;;;;20.50;13.18;;;11.40;99.90;;;;;;4983568;28;20034;-74
2023/05/14 03:03:07;;;;;;;18.33;14.18;;;11.40;99.90;;;;;;4984469;28;20033;-74
2023/05/14 03:05:32;;;;;;;19.60;14.48;;;11.40;99.90;;;;;;4970128;28;20042;-75
2023/05/14 03:07:58;;;;;;;22.73;14.82;;;11.30;99.90;;;;;;4968337;28;20043;-75
2023/05/14 03:10:23;;;;;;;20.08;14.77;;;11.30;99.90;;;;;;4966568;28;20443;-75
2023/05/14 03:12:49;;;;;;;23.10;14.38;;;11.20;99.90;;;;;;4970425;28;20055;-75
2023/05/14 03:15:14;;;;;;;17.52;13.90;;;11.20;99.90;;;;;;4968521;28;20027;-75
2023/05/14 03:17:40;;;;;;;24.42;15.10;;;11.20;99.90;;;;;;4970843;28;20038;-75
2023/05/14 03:20:06;;;;;;;22.27;14.30;;;11.20;99.90;;;;;;4962900;28;20142;-76
2023/05/14 03:22:31;;;;;;;20.75;15.35;;;11.20;99.90;;;;;;4968697;28;20245;-76
2023/05/14 03:24:57;;;;;;;20.48;15.70;;;11.10;99.90;;;;;;4969939;28;20723;-75
2023/05/14 03:27:22;;;;;;;23.67;15.07;;;11.10;99.90;;;;;;4972693;28;20051;-75
2023/05/14 03:29:48;;;;;;;25.27;15.88;;;11.00;99.90;;;;;;4976825;28;20484;-74
2023/05/14 03:32:14;;;;;;;30.02;16.58;;;11.00;99.90;;;;;;4973385;28;20126;-75
2023/05/14 03:34:39;;;;;;;21.73;15.75;;;11.10;99.90;;;;;;4971945;28;20033;-75
2023/05/14 03:37:05;;;;;;;25.35;15.68;;;11.00;99.90;;;;;;4966473;28;20117;-75
2023/05/14 03:39:30;;;;;;;22.02;16.15;;;11.00;99.90;;;;;;4970362;28;20116;-76
2023/05/14 03:41:57;;;;;;;22.88;16.05;;;11.00;99.90;;;;;;4967084;28;20043;-75
2023/05/14 03:44:23;;;;;;;22.13;15.55;;;10.90;99.90;;;;;;4960145;28;20387;-75
2023/05/14 03:46:49;;;;;;;25.35;16.92;;;10.90;99.90;;;;;;4966997;28;20057;-75
2023/05/14 03:49:14;;;;;;;22.17;16.75;;;10.90;99.90;;;;;;4940432;28;20046;-77
2023/05/14 03:51:40;;;;;;;27.25;16.75;;;10.90;99.90;;;;;;4956102;28;20086;-77
2023/05/14 03:54:06;;;;;;;21.13;16.15;;;10.80;99.90;;;;;;4968557;28;20494;-77
2023/05/14 03:56:31;;;;;;;22.05;15.70;;;10.80;99.90;;;;;;4981497;28;20113;-77
2023/05/14 03:58:57;;;;;;;22.35;16.65;;;10.70;99.90;;;;;;4991491;28;20030;-77
2023/05/14 04:01:22;;;;;;;21.63;16.00;;;10.70;99.90;;;;;;4973518;28;20124;-77
2023/05/14 04:03:48;;;;;;;24.40;16.60;;;10.70;99.90;;;;;;4972115;28;20491;-77
2023/05/14 04:06:13;;;;;;;21.25;15.95;;;10.70;99.90;;;;;;4972076;28;20038;-77
2023/05/14 04:08:39;;;;;;;24.58;16.13;;;10.70;99.90;;;;;;4971795;28;20031;-77
2023/05/14 04:11:04;;;;;;;24.65;17.40;;;10.60;99.90;;;;;;4970498;28;20027;-77
2023/05/14 04:13:30;;;;;;;23.08;16.05;;;10.70;99.90;;;;;;4972247;28;20041;-77
2023/05/14 04:15:55;;;;;;;27.13;16.92;;;10.60;99.90;;;;;;4972027;28;20465;-77
2023/05/14 04:18:21;;;;;;;26.48;16.35;;;10.60;99.90;;;;;;4970939;28;20722;-77
2023/05/14 04:20:46;;;;;;;27.08;17.75;;;10.60;99.90;;;;;;4967003;28;20522;-77
2023/05/14 04:23:12;;;;;;;21.48;16.73;;;10.60;99.90;;;;;;4971189;28;20404;-76
2023/05/14 04:25:37;;;;;;;26.80;17.00;;;10.60;99.90;;;;;;4952660;28;20407;-76
2023/05/14 04:28:03;;;;;;;27.98;17.35;;;10.60;99.90;;;;;;4973884;28;20035;-77
2023/05/14 04:30:29;;;;;;;27.20;17.52;;;10.60;99.90;;;;;;4965373;28;20058;-77
2023/05/14 04:32:55;;;;;;;23.40;17.00;;;10.60;99.90;;;;;;4976241;28;20031;-76
2023/05/14 04:35:20;;;;;;;24.83;18.70;;;10.60;99.90;;;;;;4970093;28;20035;-77
2023/05/14 04:37:47;;;;;;;23.75;17.40;;;10.60;99.90;;;;;;4974558;28;20063;-76
2023/05/14 04:40:14;;;;;;;24.45;18.08;;;10.60;99.90;;;;;;4974783;28;20029;-77
2023/05/14 04:42:41;;;;;;;27.98;18.48;;;10.60;99.90;;;;;;4975401;28;20037;-77
2023/05/14 04:45:07;;;;;;;29.38;18.90;;;10.70;99.90;;;;;;4968673;28;20379;-76
2023/05/14 04:47:33;;;;;;;25.98;17.67;;;10.70;99.90;;;;;;4964049;28;20056;-76
2023/05/14 04:49:59;;;;;;;26.08;18.05;;;10.70;99.90;;;;;;4971350;28;20101;-76
2023/05/14 04:52:25;;;;;;;25.27;17.20;;;10.70;99.90;;;;;;4972308;28;20031;-77
2023/05/14 04:54:55;;;;;;;26.80;18.48;;;10.70;99.90;;;;;;4971543;28;20034;-77
2023/05/14 04:57:21;;;;;;;27.55;17.45;;;10.80;99.90;;;;;;4961102;28;20141;-77
2023/05/14 04:59:46;;;;;;;26.25;17.52;;;10.80;99.90;;;;;;4975369;28;20176;-77
2023/05/14 05:02:12;;;;;;;25.50;18.50;;;10.80;99.90;;;;;;4974449;28;20035;-77
2023/05/14 05:04:38;;;;;;;22.92;17.98;;;10.90;99.90;;;;;;4958644;28;20026;-77
2023/05/14 05:07:04;;;;;;;28.90;18.67;;;11.00;99.90;;;;;;4972799;28;20078;-77
2023/05/14 05:09:30;;;;;;;24.13;18.15;;;11.00;99.90;;;;;;4971447;28;20395;-77
2023/05/14 05:11:55;;;;;;;26.45;18.70;;;11.10;99.90;;;;;;4973511;28;20095;-77
2023/05/14 05:14:21;;;;;;;26.33;17.98;;;11.10;99.90;;;;;;4964552;28;20035;-76
2023/05/14 05:16:46;;;;;;;27.95;18.42;;;11.20;99.90;;;;;;4970144;28;20062;-76
2023/05/14 05:19:12;;;;;;;29.27;18.83;;;11.30;99.90;;;;;;4971572;28;20085;-76
2023/05/14 05:21:39;;;;;;;25.20;18.10;;;11.40;99.90;;;;;;4971467;28;20533;-76
2023/05/14 05:24:06;;;;;;;23.67;15.85;;;11.50;99.90;;;;;;4962487;28;20059;-77
2023/05/14 05:26:31;;;;;;;23.65;16.52;;;11.70;99.90;;;;;;4969429;28;20043;-77
2023/05/14 05:28:57;;;;;;;25.65;17.65;;;11.90;99.90;;;;;;4972750;28;20365;-77
2023/05/14 05:31:22;;;;;;;24.15;16.10;;;11.90;99.90;;;;;;4969434;28;20031;-76
2023/05/14 05:33:48;;;;;;;25.13;15.73;;;11.90;99.90;;;;;;4968443;28;20023;-76
2023/05/14 05:36:13;;;;;;;23.48;16.58;;;11.90;99.90;;;;;;4967693;28;20031;-76
2023/05/14 05:38:39;;;;;;;21.52;15.80;;;11.90;99.90;;;;;;4972127;28;20072;-76
2023/05/14 05:41:05;;;;;;;24.52;16.30;;;11.80;99.90;;;;;;4968217;28;20027;-76
2023/05/14 05:43:32;;;;;;;24.65;17.38;;;11.80;99.90;;;;;;4966911;28;20506;-76
2023/05/14 05:45:58;;;;;;;22.95;17.05;;;11.80;99.90;;;;;;4968682;28;20554;-76
2023/05/14 05:48:24;;;;;;;26.30;17.23;;;11.80;99.90;;;;;;4970050;28;20039;-76
2023/05/14 05:50:50;;;;;;;28.85;17.92;;;11.90;99.90;;;;;;4973895;28;20403;-76
2023/05/14 05:53:15;;;;;;;23.02;17.20;;;12.00;99.90;;;;;;4971218;28;20383;-76
2023/05/14 05:55:41;;;;;;;24.50;17.55;;;12.10;99.90;;;;;;4974500;28;20031;-76
2023/05/14 05:58:07;;;;;;;31.73;17.30;;;12.20;99.90;;;;;;4969995;28;20562;-74
2023/05/14 06:00:33;;;;;;;23.27;17.15;;;12.30;99.90;;;;;;4973312;28;20033;-74
2023/05/14 06:02:58;;;;;;;24.92;18.13;;;12.40;99.90;;;;;;4972315;28;20023;-76
2023/05/14 06:05:24;;;;;;;26.13;17.38;;;12.50;99.90;;;;;;4973268;28;20038;-76
2023/05/14 06:07:50;;;;;;;23.13;15.45;;;12.70;99.90;;;;;;4960606;28;20073;-75
2023/05/14 06:10:16;;;;;;;23.58;17.40;;;12.80;99.90;;;;;;4956634;28;20031;-75
2023/05/14 06:12:41;;;;;;;27.95;17.73;;;12.90;99.90;;;;;;4960076;28;20039;-76
2023/05/14 06:15:07;;;;;;;27.25;17.30;;;13.00;99.90;;;;;;4964955;28;20121;-76
2023/05/14 06:17:33;;;;;;;24.83;17.15;;;13.00;99.90;;;;;;4962814;28;20023;-76
2023/05/14 06:19:58;;;;;;;24.10;17.38;;;13.10;99.90;;;;;;4966424;28;20403;-76
2023/05/14 06:22:24;;;;;;;25.10;17.17;;;13.20;99.90;;;;;;4957195;28;20065;-76
2023/05/14 06:24:49;;;;;;;27.85;16.77;;;13.30;99.90;;;;;;4954757;28;20019;-77
2023/05/14 06:27:15;;;;;;;24.48;16.23;;;13.40;99.90;;;;;;4971179;28;20101;-77
2023/05/14 06:29:40;;;;;;;24.58;16.33;;;13.60;99.90;;;;;;4970120;28;20074;-76
2023/05/14 06:32:07;;;;;;;24.77;16.33;;;13.70;99.90;;;;;;4967030;28;20031;-76
2023/05/14 06:34:33;;;;;;;26.67;17.13;;;13.80;99.90;;;;;;4967942;28;20505;-78
2023/05/14 06:36:59;;;;;;;21.58;15.65;;;14.00;99.90;;;;;;4970441;28;20027;-77
2023/05/14 06:39:24;;;;;;;24.17;16.48;;;14.20;99.90;;;;;;4969198;28;20390;-77
2023/05/14 06:41:50;;;;;;;22.73;16.42;;;14.20;99.90;;;;;;4970568;28;20098;-77
2023/05/14 06:44:18;;;;;;;19.95;15.55;;;14.40;99.90;;;;;;4972596;28;20118;-77
2023/05/14 06:46:43;;;;;;;19.50;15.45;;;14.50;99.90;;;;;;4968539;28;20757;-77
2023/05/14 06:49:09;;;;;;;25.65;16.35;;;14.60;99.90;;;;;;4970742;28;20109;-77
2023/05/14 06:51:34;;;;;;;21.00;14.82;;;14.60;99.90;;;;;;4972508;28;20066;-77
2023/05/14 06:54:00;;;;;;;21.92;15.18;;;14.60;99.90;;;;;;4966939;28;20037;-77
2023/05/14 06:56:25;;;;;;;22.83;14.45;;;14.70;99.90;;;;;;4970763;28;20384;-76
2023/05/14 06:58:51;;;;;;;24.85;15.77;;;14.70;99.90;;;;;;4960509;28;20019;-75
2023/05/14 07:01:17;;;;;;;23.88;15.50;;;14.70;99.90;;;;;;4965785;28;20034;-77
2023/05/14 07:03:42;;;;;;;21.90;15.57;;;14.70;99.90;;;;;;4966720;23;20031;-75
2023/05/14 07:06:08;;;;;;;24.40;15.80;;;14.70;99.90;;;;;;4958996;28;20035;-76
2023/05/14 07:08:33;;;;;;;21.45;15.52;;;14.70;99.90;;;;;;4981825;28;20529;-76
2023/05/14 07:10:59;;;;;;;18.45;13.48;;;14.80;99.90;;;;;;4985194;28;20034;-76
2023/05/14 07:13:27;;;;;;;25.08;15.10;;;14.80;99.90;;;;;;4992130;28;20030;-76
2023/05/14 07:15:54;;;;;;;25.67;15.18;;;14.90;99.90;;;;;;4990456;28;20026;-76
2023/05/14 07:18:20;;;;;;;24.73;15.75;;;14.90;99.90;;;;;;4970067;28;20418;-75
2023/05/14 07:20:46;;;;;;;21.17;14.95;;;15.00;99.90;;;;;;4990592;28;20022;-75
2023/05/14 07:23:12;;;;;;;21.83;14.80;;;15.00;99.90;;;;;;4971876;28;20397;-77
2023/05/14 07:25:37;;;;;;;21.80;15.07;;;15.10;99.90;;;;;;4974290;28;20050;-77
2023/05/14 07:28:03;;;;;;;23.77;15.30;;;15.20;99.90;;;;;;4991038;28;20037;-76
2023/05/14 07:30:29;;;;;;;19.95;15.00;;;15.30;99.90;;;;;;4979275;28;20027;-75
2023/05/14 07:32:54;;;;;;;23.60;14.77;;;15.40;99.90;;;;;;4982740;28;20027;-76
2023/05/14 07:35:20;;;;;;;19.05;12.48;;;15.60;99.90;;;;;;4986737;28;20035;-77
2023/05/14 07:37:46;;;;;;;19.40;14.38;;;15.90;99.90;;;;;;4992734;28;20081;-76
2023/05/14 07:40:11;;;;;;;18.63;13.52;;;16.00;99.90;;;;;;4992202;28;20034;-76
2023/05/14 07:42:37;;;;;;;19.58;13.07;;;16.20;99.90;;;;;;4990971;28;20089;-76
2023/05/14 07:45:04;;;;;;;18.08;13.98;;;16.20;99.90;;;;;;4990635;28;20057;-76
2023/05/14 07:47:30;;;;;;;20.58;15.65;;;16.10;99.90;;;;;;4987431;28;20038;-76
2023/05/14 07:49:56;;;;;;;20.52;14.40;;;16.00;99.90;;;;;;4989505;28;20049;-76
2023/05/14 07:52:22;;;;;;;22.85;14.00;;;16.00;99.90;;;;;;4979435;28;20474;-77
2023/05/14 07:54:48;;;;;;;16.60;13.63;;;16.10;99.90;;;;;;4989345;28;20085;-76
2023/05/14 07:57:14;;;;;;;23.30;14.88;;;16.20;99.90;;;;;;4992845;28;20030;-76
2023/05/14 07:59:39;;;;;;;21.65;15.23;;;16.20;99.90;;;;;;4995642;28;20030;-76
2023/05/14 08:02:05;;;;;;;16.42;13.30;;;16.20;99.90;;;;;;4990646;28;20094;-76
2023/05/14 08:04:31;;;;;;;20.50;13.35;;;16.40;99.90;;;;;;4970477;28;20740;-76
2023/05/14 08:06:57;;;;;;;17.77;13.20;;;16.50;99.90;;;;;;4987174;28;20038;-76
2023/05/14 08:09:22;;;;;;;21.92;13.20;;;16.60;99.90;;;;;;4989657;28;20026;-76
2023/05/14 08:11:48;;;;;;;18.90;13.75;;;16.70;99.90;;;;;;4985460;28;20077;-76
2023/05/14 08:14:13;;;;;;;17.20;12.93;;;16.80;99.90;;;;;;4982013;28;20031;-77
2023/05/14 08:16:39;;;;;;;16.80;12.98;;;16.90;99.90;;;;;;4970462;28;20031;-76
2023/05/14 08:19:05;;;;;;;18.30;13.52;;;17.00;99.90;;;;;;4990204;28;20037;-76
2023/05/14 08:21:31;;;;;;;16.08;13.43;;;16.90;99.90;;;;;;4992208;28;20030;-76
2023/05/14 08:23:57;;;;;;;16.83;12.55;;;17.00;99.90;;;;;;4987872;28;20350;-75
2023/05/14 08:26:22;;;;;;;16.73;12.30;;;17.20;99.90;;;;;;4995766;28;20034;-76
2023/05/14 08:28:48;;;;;;;18.70;13.15;;;17.30;99.90;;;;;;4995965;28;20030;-76
2023/05/14 08:31:13;;;;;;;16.98;11.95;;;17.50;99.90;;;;;;4982243;28;20109;-76
2023/05/14 08:33:39;;;;;;;18.50;11.48;;;17.60;99.90;;;;;;4982059;28;20026;-76
2023/05/14 08:36:06;;;;;;;18.80;12.05;;;17.70;99.90;;;;;;4990955;28;20026;-75
2023/05/14 08:38:32;;;;;;;17.02;10.98;;;17.70;99.90;;;;;;4989534;28;20031;-76
2023/05/14 08:40:58;;;;;;;14.88;10.82;;;17.80;99.90;;;;;;4987239;28;20679;-76
2023/05/14 08:43:35;;;;;;;17.98;11.48;;;17.90;99.90;;;;;;4991678;28;20650;-76
2023/05/14 08:46:05;;;;;;;14.35;11.05;;;17.80;99.90;;;;;;4994177;28;20049;-76
2023/05/14 08:48:33;;;;;;;12.70;10.85;;;17.80;99.90;;;;;;4987881;28;20105;-76
2023/05/14 08:50:59;;;;;;;18.00;11.02;;;17.90;99.90;;;;;;4994805;28;20026;-76
2023/05/14 08:53:25;;;;;;;20.77;12.18;;;17.90;99.90;;;;;;4988754;28;20030;-75
2023/05/14 08:55:52;;;;;;;12.57;9.98;;;18.00;99.90;;;;;;4989242;28;20081;-76
2023/05/14 08:58:18;;;;;;;16.73;10.27;;;18.20;99.90;;;;;;4979180;28;20342;-76
2023/05/14 09:00:44;;;;;;;11.27;10.07;;;18.30;99.90;;;;;;4985780;28;20069;-75
2023/05/14 09:03:11;;;;;;;13.45;9.98;;;18.40;99.90;;;;;;4984521;28;20050;-76
2023/05/14 09:05:37;;;;;;;13.85;10.70;;;18.40;99.90;;;;;;4982737;28;20052;-76
2023/05/14 09:08:02;;;;;;;13.05;9.95;;;18.40;99.90;;;;;;4985602;28;20042;-76
2023/05/14 09:10:28;;;;;;;14.30;10.48;;;18.60;99.90;;;;;;4985959;28;20025;-75
2023/05/14 09:12:54;;;;;;;14.70;9.43;;;18.60;99.90;;;;;;4984356;28;20022;-78
2023/05/14 09:15:19;;;;;;;13.05;9.80;;;18.60;99.90;;;;;;4990775;28;20466;-76
2023/05/14 09:17:47;;;;;;;15.38;10.10;;;18.60;99.90;;;;;;4993947;28;20035;-76
2023/05/14 09:20:14;;;;;;;14.00;10.00;;;18.70;99.90;;;;;;4994752;28;20378;-76
2023/05/14 09:22:39;;;;;;;14.23;10.25;;;18.80;99.90;;;;;;4994447;28;20497;-76
2023/05/14 09:25:08;;;;;;;11.90;10.25;;;19.00;99.90;;;;;;4989472;28;20030;-76
2023/05/14 09:27:35;;;;;;;19.50;11.43;;;19.00;99.90;;;;;;4994047;28;20038;-76
2023/05/14 09:30:04;;;;;;;18.70;10.30;;;19.10;99.90;;;;;;4988711;28;20045;-76
2023/05/14 09:32:35;;;;;;;12.35;8.77;;;19.10;99.90;;;;;;4983072;28;20117;-75
2023/05/14 09:35:12;;;;;;;12.75;8.95;;;19.20;99.90;;;;;;4979556;28;20042;-76
2023/05/14 09:37:41;;;;;;;13.80;8.50;;;19.30;99.90;;;;;;4980945;28;20076;-76
2023/05/14 09:40:10;;;;;;;13.82;9.10;;;19.50;99.90;;;;;;4980886;28;20022;-76
2023/05/14 09:42:36;;;;;;;10.77;9.05;;;19.50;99.90;;;;;;4982992;28;20035;-73
2023/05/14 09:45:03;;;;;;;15.10;10.05;;;19.50;99.90;;;;;;4983345;28;20033;-76
2023/05/14 09:47:30;;;;;;;11.10;9.02;;;19.40;99.90;;;;;;4976984;28;20043;-76
2023/05/14 09:49:56;;;;;;;10.93;8.85;;;19.40;99.90;;;;;;4981730;28;20041;-76
2023/05/14 09:52:25;;;;;;;12.85;8.18;;;19.50;99.90;;;;;;4982068;28;20034;-76
2023/05/14 09:54:53;;;;;;;12.15;8.60;;;19.70;99.90;;;;;;4989206;28;20031;-76
2023/05/14 09:57:19;;;;;;;13.63;8.93;;;19.80;99.90;;;;;;4987090;28;20046;-76
2023/05/14 09:59:45;;;;;;;12.07;8.93;;;19.80;99.90;;;;;;4985645;28;20092;-76
2023/05/14 10:02:21;;;;;;;12.23;9.30;;;19.80;99.90;;;;;;4988583;28;20469;-76
2023/05/14 10:04:49;;;;;;;14.25;8.23;;;19.80;99.90;;;;;;4989151;28;20050;-76
2023/05/14 10:07:20;;;;;;;10.90;8.23;;;19.90;99.90;;;;;;4990221;28;20038;-76
2023/05/14 10:09:46;;;;;;;13.23;8.00;;;20.00;99.90;;;;;;4989816;28;20353;-76
2023/05/14 10:12:14;;;;;;;11.07;7.93;;;20.10;99.90;;;;;;4992615;28;20034;-76
2023/05/14 10:14:41;;;;;;;13.98;8.60;;;20.30;99.90;;;;;;4993577;28;20458;-76
2023/05/14 10:17:16;;;;;;;10.43;7.53;;;20.40;99.90;;;;;;4991921;28;20041;-76
2023/05/14 10:19:55;;;;;;;11.05;7.35;;;20.50;99.90;;;;;;4984244;28;20031;-76
2023/05/14 10:22:30;;;;;;;13.55;9.07;;;20.60;99.90;;;;;;4984289;28;20113;-76
2023/05/14 10:24:56;;;;;;;12.68;8.50;;;20.60;99.90;;;;;;4984541;28;20160;-76
2023/05/14 10:27:22;;;;;;;10.52;7.60;;;20.70;99.90;;;;;;4981633;28;20517;-76
2023/05/14 10:29:55;;;;;;;13.38;8.25;;;20.70;99.90;;;;;;4990329;28;20038;-76
2023/05/14 10:32:25;;;;;;;11.25;8.02;;;20.80;99.90;;;;;;4990293;28;20103;-76
2023/05/14 10:34:51;;;;;;;15.48;9.40;;;20.70;99.90;;;;;;4987659;28;20019;-76
2023/05/14 10:37:27;;;;;;;16.08;8.52;;;20.80;99.90;;;;;;4989702;28;20030;-77
2023/05/14 10:39:53;;;;;;;12.77;8.48;;;20.80;99.90;;;;;;5006679;22;20029;-89
2023/05/14 10:42:25;;;;;;;12.30;9.00;;;20.90;99.90;;;;;;4995827;28;21299;-89
2023/05/14 10:45:00;;;;;;;13.20;8.15;;;21.00;99.90;;;;;;4965938;28;20023;-89
2023/05/14 10:47:30;;;;;;;11.10;7.75;;;21.00;99.90;;;;;;4987031;28;20049;-89
2023/05/14 10:49:58;;;;;;;11.15;8.10;;;21.00;99.90;;;;;;4975288;28;20454;-88
2023/05/14 10:52:25;;;;;;;9.70;7.57;;;20.90;99.90;;;;;;4972319;28;20031;-88
2023/05/14 10:54:54;;;;;;;10.35;6.88;;;20.90;99.90;;;;;;4970778;28;20557;-88
2023/05/14 10:57:21;;;;;;;9.60;6.22;;;21.00;99.90;;;;;;4971012;28;20042;-89
2023/05/14 10:59:52;;;;;;;9.85;7.15;;;21.10;99.90;;;;;;4978373;28;20387;-88
2023/05/14 11:02:29;;;;;;;10.85;6.68;;;21.30;99.90;;;;;;4972153;28;20030;-89
2023/05/14 11:05:07;;;;;;;6.18;5.38;;;21.30;99.90;;;;;;4969995;28;20098;-89
2023/05/14 11:07:38;;;;;;;7.63;5.13;;;21.30;99.90;;;;;;4990493;28;20038;-90
2023/05/14 11:10:06;;;;;;;8.80;6.05;;;21.30;99.90;;;;;;4977827;28;20022;-87
2023/05/14 11:12:33;;;;;;;7.35;5.00;;;21.40;99.90;;;;;;4996029;28;20042;-87
2023/05/14 11:15:01;;;;;;;11.02;6.43;;;21.40;99.90;;;;;;4962675;28;20027;-87
2023/05/14 11:17:28;;;;;;;10.90;5.68;;;21.60;99.30;;;;;;4975951;28;20031;-87
2023/05/14 11:19:55;;;;;;;7.13;5.00;;;21.80;98.90;;;;;;4981472;28;20077;-88
2023/05/14 11:22:21;;;;;;;11.32;5.50;;;22.10;99.00;;;;;;4975918;28;20504;-88
2023/05/14 11:24:47;;;;;;;9.73;5.15;;;22.40;98.20;;;;;;4975668;28;20027;-88
2023/05/14 11:27:13;;;;;;;6.80;4.47;;;22.60;97.20;;;;;;4970248;28;20035;-89
2023/05/14 11:29:43;;;;;;;7.00;4.40;;;22.60;96.40;;;;;;4978305;28;20025;-88
2023/05/14 11:32:09;;;;;;;5.95;4.28;;;22.50;95.90;;;;;;4976021;28;20103;-88
2023/05/14 11:34:36;;;;;;;5.03;3.50;;;22.50;94.80;;;;;;4989859;28;20129;-88
2023/05/14 11:37:03;;;;;;;8.02;3.88;;;22.50;94.10;;;;;;4979142;28;20081;-89
2023/05/14 11:39:30;;;;;;;6.35;3.30;;;22.50;93.70;;;;;;4974222;28;20053;-88
2023/05/14 11:41:57;;;;;;;6.05;3.45;;;22.40;92.80;;;;;;4966763;28;20061;-89
2023/05/14 11:44:23;;;;;;;8.23;3.83;;;22.40;91.50;;;;;;4978511;28;20117;-88
2023/05/14 11:46:56;;;;;;;5.35;3.22;;;22.50;91.60;;;;;;4974966;28;20084;-89
2023/05/14 11:49:27;;;;;;;4.78;3.40;;;22.40;90.90;;;;;;4969296;28;20030;-88
2023/05/14 11:51:57;;;;;;;6.10;3.25;;;22.30;90.20;;;;;;4978310;28;20030;-89
2023/05/14 11:54:28;;;;;;;5.13;4.15;;;22.40;91.20;;;;;;4978321;28;20031;-88
2023/05/14 11:56:55;;;;;;;4.72;3.75;;;22.50;90.80;;;;;;4977617;28;20522;-88
2023/05/14 11:59:24;;;;;;;7.07;3.70;;;22.70;90.50;;;;;;4967465;28;20028;-88
2023/05/14 12:01:51;;;;;;;6.03;4.07;;;22.90;90.00;;;;;;4977954;28;20037;-88
2023/05/14 12:04:21;;;;;;;5.63;3.53;;;23.00;89.70;;;;;;4978139;28;20026;-89
2023/05/14 12:06:51;;;;;;;5.30;2.83;;;23.20;88.70;;;;;;4958329;28;20121;-89
2023/05/14 12:09:18;;;;;;;5.90;3.25;;;23.40;88.30;;;;;;4976525;28;20030;-89
2023/05/14 12:11:47;;;;;;;5.57;2.92;;;23.60;81.80;;;;;;4975800;28;20043;-89
2023/05/14 12:14:21;;;;;;;5.07;2.20;;;23.70;80.70;;;;;;4972447;28;20194;-89
2023/05/14 12:16:47;;;;;;;5.72;2.92;;;23.90;79.60;;;;;;4973463;28;20041;-88
2023/05/14 12:19:14;;;;;;;5.70;2.42;;;24.10;80.50;;;;;;4972691;28;20027;-87
2023/05/14 12:21:42;;;;;;;3.45;1.73;;;24.20;80.10;;;;;;4961609;28;20081;-88
2023/05/14 12:24:13;;;;;;;5.32;2.20;;;24.20;80.60;;;;;;4982218;28;20501;-88
2023/05/14 12:26:42;;;;;;;4.40;1.90;;;24.20;76.00;;;;;;4978215;28;20030;-89
2023/05/14 12:29:12;;;;;;;3.28;1.85;;;24.10;78.10;;;;;;4977837;28;20034;-87
2023/05/14 12:31:47;;;;;;;7.07;2.28;;;24.00;78.70;;;;;;4974991;28;20030;-88